createdAt,value
2023-05-21T00:01:18.281Z,12.78
2023-05-21T00:03:46.282Z,12.67
2023-05-21T00:06:16.127Z,12.56
2023-05-21T00:08:44.042Z,12.56
2023-05-21T00:11:10.965Z,12.76
2023-05-21T00:13:38.606Z,12.64
2023-05-21T00:16:05.729Z,12.63
2023-05-21T00:18:34.283Z,12.56
2023-05-21T00:21:01.792Z,12.51
2023-05-21T00:23:29.017Z,12.72
2023-05-21T00:25:56.317Z,12.49
2023-05-21T00:28:22.985Z,12.40
2023-05-21T00:30:49.765Z,12.35
2023-05-21T00:33:16.521Z,12.41
2023-05-21T00:35:43.277Z,12.32
2023-05-21T00:38:10.030Z,12.24
2023-05-21T00:40:36.800Z,12.28
2023-05-21T00:43:03.711Z,12.21
2023-05-21T00:45:30.497Z,12.30
2023-05-21T00:47:57.794Z,12.11
2023-05-21T00:50:24.637Z,12.18
2023-05-21T00:52:51.795Z,12.11
2023-05-21T00:55:18.441Z,12.15
2023-05-21T00:57:46.085Z,12.01
2023-05-21T01:00:14.793Z,12.10
2023-05-21T01:02:42.405Z,12.04
2023-05-21T01:05:10.698Z,12.22
2023-05-21T01:07:39.895Z,12.28
2023-05-21T01:10:08.535Z,12.28
2023-05-21T01:12:40.850Z,12.26
2023-05-21T01:15:10.820Z,12.22
2023-05-21T01:17:39.134Z,12.09
2023-05-21T01:20:10.443Z,12.15
2023-05-21T01:22:42.704Z,12.02
2023-05-21T01:25:10.762Z,12.12
2023-05-21T01:27:37.458Z,12.09
2023-05-21T01:30:05.326Z,12.18
2023-05-21T01:32:37.986Z,12.04
2023-05-21T01:35:07.068Z,12.15
2023-05-21T01:37:59.386Z,12.01
2023-05-21T01:40:28.425Z,12.18
2023-05-21T01:42:55.905Z,12.11
2023-05-21T01:45:24.220Z,12.04
2023-05-21T01:47:53.929Z,12.07
2023-05-21T01:50:24.550Z,12.11
2023-05-21T01:53:01.147Z,11.94
2023-05-21T01:55:30.766Z,11.85
2023-05-21T01:58:00.017Z,11.96
2023-05-21T02:00:29.440Z,11.97
2023-05-21T02:02:56.444Z,11.79
2023-05-21T02:05:23.350Z,11.82
2023-05-21T02:07:52.002Z,11.85
2023-05-21T02:10:19.267Z,11.96
2023-05-21T02:12:46.259Z,11.83
2023-05-21T02:15:18.142Z,11.80
2023-05-21T02:17:46.555Z,11.92
2023-05-21T02:20:13.830Z,11.98
2023-05-21T02:22:41.792Z,12.03
2023-05-21T02:25:09.640Z,11.99
2023-05-21T02:27:37.642Z,11.95
2023-05-21T02:30:06.870Z,12.01
2023-05-21T02:32:35.110Z,11.92
2023-05-21T02:35:03.967Z,12.07
2023-05-21T02:37:34.511Z,11.93
2023-05-21T02:40:04.187Z,11.88
2023-05-21T02:42:31.007Z,12.14
2023-05-21T02:45:02.290Z,11.92
2023-05-21T02:47:29.441Z,12.04
2023-05-21T02:50:00.327Z,11.86
2023-05-21T02:52:27.535Z,11.79
2023-05-21T02:54:54.352Z,11.77
2023-05-21T02:57:21.214Z,11.86
2023-05-21T02:59:48.187Z,11.78
2023-05-21T03:02:14.947Z,11.94
2023-05-21T03:04:46.097Z,11.76
2023-05-21T03:07:14.610Z,11.83
2023-05-21T03:09:42.156Z,11.70
2023-05-21T03:12:11.044Z,11.80
2023-05-21T03:14:38.070Z,11.63
2023-05-21T03:17:06.181Z,11.57
2023-05-21T03:19:35.805Z,11.79
2023-05-21T03:22:04.501Z,11.65
2023-05-21T03:24:34.373Z,11.58
2023-05-21T03:27:02.320Z,11.66
2023-05-21T03:29:29.200Z,11.61
2023-05-21T03:31:56.859Z,11.59
2023-05-21T03:34:24.076Z,11.71
2023-05-21T03:36:51.157Z,11.65
2023-05-21T03:39:18.926Z,11.65
2023-05-21T03:41:45.692Z,11.73
2023-05-21T03:44:20.469Z,11.76
2023-05-21T03:46:53.157Z,11.94
2023-05-21T03:49:26.799Z,11.92
2023-05-21T03:51:56.170Z,12.02
2023-05-21T03:54:23.864Z,12.18
2023-05-21T03:56:53.708Z,12.37
2023-05-21T03:59:20.764Z,12.37
2023-05-21T04:01:47.932Z,12.34
2023-05-21T04:04:16.958Z,12.50
2023-05-21T04:06:46.200Z,12.68
2023-05-21T04:09:13.101Z,12.80
2023-05-21T04:11:39.890Z,12.71
2023-05-21T04:14:06.638Z,12.76
2023-05-21T04:16:35.487Z,12.78
2023-05-21T04:19:03.684Z,12.50
2023-05-21T04:21:32.213Z,12.71
2023-05-21T04:24:00.740Z,12.87
2023-05-21T04:26:42.381Z,12.67
2023-05-21T04:29:10.064Z,12.80
2023-05-21T04:31:36.903Z,12.75
2023-05-21T04:34:05.006Z,12.83
2023-05-21T04:36:31.968Z,12.65
2023-05-21T04:38:58.676Z,12.55
2023-05-21T04:41:25.355Z,12.50
2023-05-21T04:43:55.389Z,12.82
2023-05-21T04:46:26.821Z,12.95
2023-05-21T04:48:56.975Z,13.06
2023-05-21T04:51:27.062Z,13.10
2023-05-21T04:53:58.116Z,13.40
2023-05-21T04:56:27.845Z,13.60
2023-05-21T04:58:54.570Z,13.76
2023-05-21T05:01:27.266Z,13.64
2023-05-21T05:03:54.242Z,13.45
2023-05-21T05:06:21.595Z,13.42
2023-05-21T05:08:51.089Z,13.25
2023-05-21T05:11:17.816Z,13.31
2023-05-21T05:13:44.587Z,13.19
2023-05-21T05:16:11.357Z,13.27
2023-05-21T05:18:41.547Z,13.50
2023-05-21T05:21:08.418Z,13.36
2023-05-21T05:23:35.185Z,13.35
2023-05-21T05:26:01.881Z,13.44
2023-05-21T05:28:28.757Z,13.51
2023-05-21T05:30:55.589Z,13.74
2023-05-21T05:33:24.827Z,13.93
2023-05-21T05:35:55.061Z,14.27
2023-05-21T05:38:22.198Z,14.34
2023-05-21T05:40:48.931Z,14.41
2023-05-21T05:43:16.652Z,14.26
2023-05-21T05:45:43.835Z,14.21
2023-05-21T05:48:13.957Z,14.41
2023-05-21T05:50:44.370Z,14.82
2023-05-21T05:53:13.378Z,15.01
2023-05-21T05:55:40.876Z,14.96
2023-05-21T05:58:07.801Z,15.20
2023-05-21T06:00:46.935Z,15.43
2023-05-21T06:03:14.039Z,15.43
2023-05-21T06:05:42.194Z,15.32
2023-05-21T06:08:08.937Z,15.74
2023-05-21T06:10:35.593Z,15.85
2023-05-21T06:13:03.690Z,15.84
2023-05-21T06:15:33.542Z,16.19
2023-05-21T06:18:00.532Z,16.16
2023-05-21T06:20:30.374Z,16.15
2023-05-21T06:22:57.330Z,16.50
2023-05-21T06:25:25.728Z,16.84
2023-05-21T06:27:52.442Z,16.89
2023-05-21T06:30:27.232Z,17.09
2023-05-21T06:32:56.289Z,17.22
2023-05-21T06:35:23.822Z,17.12
2023-05-21T06:37:50.491Z,17.25
2023-05-21T06:40:17.191Z,17.47
2023-05-21T06:42:45.835Z,17.44
2023-05-21T06:45:21.779Z,17.34
2023-05-21T06:47:51.756Z,17.37
2023-05-21T06:50:18.816Z,17.52
2023-05-21T06:52:45.630Z,17.54
2023-05-21T06:55:13.008Z,17.68
2023-05-21T06:57:58.877Z,17.16
2023-05-21T07:00:25.837Z,17.14
2023-05-21T07:02:53.571Z,17.03
2023-05-21T07:05:20.558Z,16.92
2023-05-21T07:07:50.032Z,17.03
2023-05-21T07:10:16.789Z,17.25
2023-05-21T07:12:43.570Z,17.43
2023-05-21T07:15:10.952Z,17.18
2023-05-21T07:17:38.931Z,17.03
2023-05-21T07:20:08.780Z,17.33
2023-05-21T07:22:42.970Z,17.46
2023-05-21T07:25:13.428Z,17.51
2023-05-21T07:27:40.207Z,17.33
2023-05-21T07:30:07.948Z,17.53
2023-05-21T07:32:35.256Z,17.61
2023-05-21T07:35:02.137Z,17.60
2023-05-21T07:37:30.740Z,17.64
2023-05-21T07:40:01.019Z,17.54
2023-05-21T07:42:28.279Z,17.49
2023-05-21T07:44:56.800Z,17.80
2023-05-21T07:47:25.696Z,17.68
2023-05-21T07:49:52.475Z,17.93
2023-05-21T07:52:19.343Z,17.92
2023-05-21T07:54:46.106Z,18.21
2023-05-21T07:57:13.006Z,17.99
2023-05-21T07:59:48.773Z,18.05
2023-05-21T08:02:15.758Z,18.41
2023-05-21T08:04:43.225Z,18.44
2023-05-21T08:07:10.735Z,18.76
2023-05-21T08:09:37.538Z,18.84
2023-05-21T08:12:04.914Z,18.70
2023-05-21T08:14:32.063Z,18.68
2023-05-21T08:16:59.767Z,19.00
2023-05-21T08:19:26.451Z,19.08
2023-05-21T08:21:53.394Z,19.04
2023-05-21T08:24:21.899Z,19.31
2023-05-21T08:26:50.653Z,19.03
2023-05-21T08:29:18.162Z,19.06
2023-05-21T08:31:45.219Z,19.30
2023-05-21T08:34:12.206Z,19.28
2023-05-21T08:36:49.955Z,19.34
2023-05-21T08:39:37.040Z,19.33
2023-05-21T08:42:36.534Z,19.22
2023-05-21T08:45:06.716Z,19.22
2023-05-21T08:47:36.032Z,19.48
2023-05-21T08:50:08.629Z,19.44
2023-05-21T08:52:35.437Z,19.57
2023-05-21T08:55:04.525Z,19.53
2023-05-21T08:57:35.237Z,19.37
2023-05-21T09:00:04.730Z,19.43
2023-05-21T09:02:35.395Z,19.49
2023-05-21T09:05:04.466Z,19.35
2023-05-21T09:07:34.491Z,19.39
2023-05-21T09:10:19.932Z,19.44
2023-05-21T09:12:48.880Z,19.37
2023-05-21T09:15:15.779Z,19.45
2023-05-21T09:17:42.624Z,19.42
2023-05-21T09:20:32.380Z,19.48
2023-05-21T09:23:08.028Z,19.56
2023-05-21T09:25:38.139Z,19.56
2023-05-21T09:28:15.825Z,19.42
2023-05-21T09:30:47.268Z,19.56
2023-05-21T09:33:26.202Z,19.58
2023-05-21T09:35:53.470Z,19.69
2023-05-21T09:38:22.994Z,19.57
2023-05-21T09:40:49.751Z,19.69
2023-05-21T09:43:17.935Z,19.53
2023-05-21T09:45:58.945Z,19.39
2023-05-21T09:48:42.041Z,19.58
2023-05-21T09:51:19.548Z,19.53
2023-05-21T09:53:54.462Z,19.76
2023-05-21T09:56:26.530Z,19.56
2023-05-21T09:58:57.588Z,19.73
2023-05-21T10:01:25.057Z,19.87
2023-05-21T10:03:56.939Z,20.21
2023-05-21T10:06:29.822Z,20.22
2023-05-21T10:08:59.133Z,20.40
2023-05-21T10:11:27.416Z,20.60
2023-05-21T10:14:09.113Z,20.73
2023-05-21T10:16:37.523Z,20.79
2023-05-21T10:19:10.857Z,20.88
2023-05-21T10:21:39.951Z,20.80
2023-05-21T10:24:08.504Z,21.03
2023-05-21T10:26:36.321Z,21.01
2023-05-21T10:29:03.413Z,21.01
2023-05-21T10:31:30.199Z,21.12
2023-05-21T10:33:57.267Z,21.42
2023-05-21T10:36:31.826Z,21.55
2023-05-21T10:39:00.660Z,21.68
2023-05-21T10:41:32.127Z,21.78
2023-05-21T10:44:30.977Z,21.79
2023-05-21T10:47:24.003Z,21.77
2023-05-21T10:50:17.894Z,21.67
2023-05-21T10:53:09.953Z,21.80
2023-05-21T10:55:43.484Z,21.86
2023-05-21T10:58:38.118Z,21.80
2023-05-21T11:01:05.809Z,21.70
2023-05-21T11:03:36.686Z,21.93
2023-05-21T11:06:11.465Z,21.95
2023-05-21T11:08:39.014Z,21.69
2023-05-21T11:11:06.204Z,22.20
2023-05-21T11:13:49.078Z,21.95
2023-05-21T11:16:16.910Z,21.96
2023-05-21T11:18:46.487Z,21.84
2023-05-21T11:21:17.955Z,21.96
2023-05-21T11:23:50.861Z,22.21
2023-05-21T11:26:22.531Z,22.27
2023-05-21T11:29:04.657Z,22.09
2023-05-21T11:31:39.564Z,22.40
2023-05-21T11:34:13.801Z,22.17
2023-05-21T11:36:44.461Z,22.11
2023-05-21T11:39:17.709Z,22.03
2023-05-21T11:42:04.520Z,21.86
2023-05-21T11:44:44.642Z,22.19
2023-05-21T11:47:13.465Z,22.22
2023-05-21T11:49:40.130Z,22.54
2023-05-21T11:52:08.871Z,22.58
2023-05-21T11:54:48.687Z,22.57
2023-05-21T11:57:17.262Z,22.51
2023-05-21T11:59:53.583Z,22.53
2023-05-21T12:02:22.235Z,22.94
2023-05-21T12:04:52.012Z,22.70
2023-05-21T12:07:20.299Z,22.95
2023-05-21T12:09:49.316Z,22.76
2023-05-21T12:12:21.438Z,22.88
2023-05-21T12:14:53.193Z,22.81
2023-05-21T12:17:23.870Z,22.98
2023-05-21T12:20:01.759Z,22.84
2023-05-21T12:22:29.820Z,23.29
2023-05-21T12:24:58.319Z,23.00
2023-05-21T12:27:25.208Z,23.22
2023-05-21T12:29:53.110Z,23.08
2023-05-21T12:32:22.110Z,22.94
2023-05-21T12:34:54.699Z,22.75
2023-05-21T12:37:32.577Z,22.53
2023-05-21T12:40:01.283Z,22.52
2023-05-21T12:42:35.605Z,22.46
2023-05-21T12:45:11.899Z,22.45
2023-05-21T12:47:38.689Z,22.48
2023-05-21T12:50:09.476Z,22.49
2023-05-21T12:52:36.211Z,22.52
2023-05-21T12:55:04.307Z,22.54
2023-05-21T12:57:40.740Z,22.52
2023-05-21T13:00:11.327Z,22.52
2023-05-21T13:02:42.691Z,22.55
2023-05-21T13:05:17.206Z,22.53
2023-05-21T13:07:46.912Z,22.55
2023-05-21T13:10:16.863Z,22.64
2023-05-21T13:12:44.632Z,22.49
2023-05-21T13:15:11.753Z,22.46
2023-05-21T13:17:41.347Z,22.50
2023-05-21T13:20:12.777Z,22.46
2023-05-21T13:22:46.587Z,22.41
2023-05-21T13:25:25.113Z,22.40
2023-05-21T13:27:53.010Z,22.37
2023-05-21T13:30:20.904Z,22.41
2023-05-21T13:32:48.876Z,22.46
2023-05-21T13:35:16.631Z,22.46
2023-05-21T13:37:43.604Z,22.45
2023-05-21T13:40:11.900Z,22.55
2023-05-21T13:42:39.173Z,22.54
2023-05-21T13:45:10.462Z,22.57
2023-05-21T13:47:39.988Z,22.52
2023-05-21T13:50:08.327Z,22.45
2023-05-21T13:52:35.293Z,22.49
2023-05-21T13:55:02.143Z,22.44
2023-05-21T13:57:30.850Z,22.38
2023-05-21T13:59:58.397Z,22.36
2023-05-21T14:02:25.605Z,22.41
2023-05-21T14:04:52.516Z,22.50
2023-05-21T14:07:19.230Z,22.56
2023-05-21T14:09:47.586Z,22.67
2023-05-21T14:12:14.316Z,22.71
2023-05-21T14:14:42.007Z,22.67
2023-05-21T14:17:08.755Z,22.63
2023-05-21T14:19:35.778Z,22.57
2023-05-21T14:22:02.521Z,22.58
2023-05-21T14:24:29.220Z,22.64
2023-05-21T14:26:55.856Z,22.59
2023-05-21T14:29:22.481Z,22.69
2023-05-21T14:31:49.276Z,22.73
2023-05-21T14:34:16.018Z,22.78
2023-05-21T14:36:42.693Z,22.82
2023-05-21T14:39:09.338Z,22.87
2023-05-21T14:41:39.522Z,22.82
2023-05-21T14:44:06.197Z,22.80
2023-05-21T14:46:33.103Z,22.83
2023-05-21T14:49:00.640Z,22.78
2023-05-21T14:51:27.465Z,22.79
2023-05-21T14:53:54.257Z,22.76
2023-05-21T14:56:21.967Z,22.79
2023-05-21T14:58:48.932Z,22.77
2023-05-21T15:01:15.815Z,22.65
2023-05-21T15:03:42.670Z,22.66
2023-05-21T15:06:09.518Z,22.65
2023-05-21T15:08:36.242Z,22.64
2023-05-21T15:11:02.908Z,22.59
2023-05-21T15:13:29.598Z,22.63
2023-05-21T15:15:56.379Z,22.58
2023-05-21T15:18:24.712Z,22.53
2023-05-21T15:20:51.677Z,22.55
2023-05-21T15:23:18.726Z,22.61
2023-05-21T15:25:45.953Z,22.58
2023-05-21T15:28:12.916Z,22.64
2023-05-21T15:30:40.292Z,22.54
2023-05-21T15:33:07.004Z,22.58
2023-05-21T15:35:35.543Z,22.57
2023-05-21T15:38:02.778Z,22.54
2023-05-21T15:40:29.588Z,22.50
2023-05-21T15:42:56.278Z,22.44
2023-05-21T15:45:22.914Z,22.42
2023-05-21T15:47:49.601Z,22.43
2023-05-21T15:50:16.462Z,22.43
2023-05-21T15:52:43.222Z,22.44
2023-05-21T15:55:10.188Z,22.42
2023-05-21T15:57:36.996Z,22.40
2023-05-21T16:00:05.441Z,22.39
2023-05-21T16:02:35.601Z,22.41
2023-05-21T16:05:02.426Z,22.44
2023-05-21T16:07:29.108Z,22.43
2023-05-21T16:09:55.788Z,22.36
2023-05-21T16:12:22.618Z,22.35
2023-05-21T16:14:52.073Z,22.36
2023-05-21T16:17:21.717Z,22.34
2023-05-21T16:19:48.439Z,22.31
2023-05-21T16:22:15.234Z,22.36
2023-05-21T16:24:41.896Z,22.29
2023-05-21T16:27:08.579Z,22.23
2023-05-21T16:29:35.319Z,22.20
2023-05-21T16:32:02.152Z,22.16
2023-05-21T16:34:28.868Z,22.15
2023-05-21T16:36:55.554Z,22.10
2023-05-21T16:39:22.338Z,22.10
2023-05-21T16:41:49.102Z,22.07
2023-05-21T16:44:15.755Z,22.00
2023-05-21T16:46:42.725Z,22.00
2023-05-21T16:49:09.541Z,21.98
2023-05-21T16:51:36.328Z,21.95
2023-05-21T16:54:04.818Z,21.96
2023-05-21T16:56:31.644Z,21.98
2023-05-21T16:58:58.526Z,21.92
2023-05-21T17:01:25.194Z,21.86
2023-05-21T17:03:54.359Z,21.82
2023-05-21T17:06:21.246Z,21.81
2023-05-21T17:08:47.928Z,21.78
2023-05-21T17:11:14.709Z,21.76
2023-05-21T17:13:41.874Z,21.71
2023-05-21T17:16:08.580Z,21.75
2023-05-21T17:18:35.372Z,21.75
2023-05-21T17:21:02.100Z,21.74
2023-05-21T17:23:28.764Z,21.71
2023-05-21T17:25:55.538Z,21.67
2023-05-21T17:28:22.264Z,21.58
2023-05-21T17:30:49.786Z,21.56
2023-05-21T17:33:16.894Z,21.54
2023-05-21T17:35:43.998Z,21.47
2023-05-21T17:38:10.818Z,21.42
2023-05-21T17:40:37.577Z,21.40
2023-05-21T17:43:05.186Z,21.36
2023-05-21T17:45:32.094Z,21.34
2023-05-21T17:48:00.424Z,21.29
2023-05-21T17:50:27.844Z,21.22
2023-05-21T17:52:54.580Z,21.26
2023-05-21T17:55:21.268Z,21.21
2023-05-21T17:57:47.970Z,21.21
2023-05-21T18:00:14.897Z,21.23
2023-05-21T18:02:41.571Z,21.18
2023-05-21T18:05:08.560Z,21.12
2023-05-21T18:07:35.290Z,21.14
2023-05-21T18:10:01.928Z,21.13
2023-05-21T18:12:28.661Z,21.10
2023-05-21T18:14:55.356Z,21.04
2023-05-21T18:17:22.057Z,21.05
2023-05-21T18:19:48.878Z,21.07
2023-05-21T18:22:15.595Z,21.09
2023-05-21T18:24:42.710Z,21.08
2023-05-21T18:27:09.481Z,21.03
2023-05-21T18:29:36.760Z,21.03
2023-05-21T18:32:04.145Z,20.96
2023-05-21T18:34:31.011Z,20.99
2023-05-21T18:36:58.778Z,20.98
2023-05-21T18:39:27.051Z,20.95
2023-05-21T18:42:11.588Z,20.92
2023-05-21T18:44:39.938Z,20.92
2023-05-21T18:47:07.751Z,20.87
2023-05-21T18:49:36.095Z,20.81
2023-05-21T18:52:04.043Z,20.79
2023-05-21T18:54:31.143Z,20.74
2023-05-21T18:57:00.236Z,20.71
2023-05-21T18:59:28.674Z,20.69
2023-05-21T19:01:55.492Z,20.65
2023-05-21T19:04:23.848Z,20.63
2023-05-21T19:06:52.564Z,20.59
2023-05-21T19:09:19.236Z,20.59
2023-05-21T19:11:46.026Z,20.52
2023-05-21T19:14:12.795Z,20.52
2023-05-21T19:16:39.559Z,20.51
2023-05-21T19:19:06.350Z,20.46
2023-05-21T19:21:33.568Z,20.48
2023-05-21T19:24:05.895Z,20.48
2023-05-21T19:26:32.928Z,20.56
2023-05-21T19:28:59.673Z,20.57
2023-05-21T19:31:26.468Z,20.53
2023-05-21T19:33:53.386Z,20.42
2023-05-21T19:36:21.219Z,20.44
2023-05-21T19:38:49.136Z,20.52
2023-05-21T19:41:16.960Z,20.50
2023-05-21T19:43:44.424Z,20.41
2023-05-21T19:46:11.348Z,20.34
2023-05-21T19:48:38.210Z,20.32
2023-05-21T19:51:05.130Z,20.33
2023-05-21T19:53:31.857Z,20.33
2023-05-21T19:55:58.616Z,20.26
2023-05-21T19:58:26.990Z,20.24
2023-05-21T20:00:58.575Z,20.20
2023-05-21T20:03:26.868Z,20.17
2023-05-21T20:05:54.240Z,20.19
2023-05-21T20:08:21.358Z,20.12
2023-05-21T20:10:50.503Z,20.06
2023-05-21T20:13:18.646Z,20.05
2023-05-21T20:15:45.607Z,20.19
2023-05-21T20:18:12.932Z,20.28
2023-05-21T20:20:41.283Z,20.22
2023-05-21T20:23:08.881Z,20.19
2023-05-21T20:25:35.828Z,20.26
2023-05-21T20:28:03.329Z,20.27
2023-05-21T20:30:34.916Z,20.29
2023-05-21T20:33:02.943Z,20.33
2023-05-21T20:35:30.197Z,20.25
2023-05-21T20:37:57.016Z,20.27
2023-05-21T20:40:23.698Z,20.44
2023-05-21T20:42:53.443Z,20.37
2023-05-21T20:45:21.066Z,20.13
2023-05-21T20:47:48.272Z,20.36
2023-05-21T20:50:17.516Z,20.16
2023-05-21T20:52:47.004Z,20.15
2023-05-21T20:55:14.909Z,20.19
2023-05-21T20:57:42.152Z,20.06
2023-05-21T21:00:11.871Z,20.17
2023-05-21T21:02:39.130Z,20.13
2023-05-21T21:05:06.686Z,20.26
2023-05-21T21:07:34.154Z,20.18
2023-05-21T21:10:01.405Z,20.16
2023-05-21T21:12:28.196Z,20.06
2023-05-21T21:14:55.012Z,19.89
2023-05-21T21:17:23.455Z,19.86
2023-05-21T21:19:50.317Z,19.63
2023-05-21T21:22:18.188Z,19.35
2023-05-21T21:24:45.620Z,19.26
2023-05-21T21:27:12.419Z,19.07
2023-05-21T21:29:39.183Z,19.06
2023-05-21T21:32:06.463Z,19.02
2023-05-21T21:34:33.141Z,18.87
2023-05-21T21:36:59.848Z,18.97
2023-05-21T21:39:28.989Z,18.89
2023-05-21T21:41:55.834Z,18.82
2023-05-21T21:44:22.569Z,18.85
2023-05-21T21:46:49.446Z,18.85
2023-05-21T21:49:18.569Z,18.80
2023-05-21T21:51:45.616Z,18.80
2023-05-21T21:54:12.371Z,18.79
2023-05-21T21:56:39.182Z,18.83
2023-05-21T21:59:06.015Z,18.72
2023-05-21T22:01:33.163Z,18.72
2023-05-21T22:03:59.933Z,18.74
2023-05-21T22:06:27.699Z,18.77
2023-05-21T22:08:55.027Z,18.72
2023-05-21T22:11:21.967Z,18.68
2023-05-21T22:13:48.867Z,18.61
2023-05-21T22:16:15.658Z,18.61
2023-05-21T22:18:42.457Z,18.55
2023-05-21T22:21:10.596Z,18.59
2023-05-21T22:23:38.514Z,18.53
2023-05-21T22:26:05.862Z,18.50
2023-05-21T22:28:32.822Z,18.43
2023-05-21T22:30:59.610Z,18.40
2023-05-21T22:33:26.837Z,18.40
2023-05-21T22:35:54.467Z,18.36
2023-05-21T22:38:21.511Z,18.29
2023-05-21T22:40:48.425Z,18.31
2023-05-21T22:43:15.086Z,18.19
2023-05-21T22:45:42.192Z,18.12
2023-05-21T22:48:09.433Z,18.08
2023-05-21T22:50:38.238Z,18.13
2023-05-21T22:53:05.753Z,18.06
2023-05-21T22:55:32.453Z,18.05
2023-05-21T22:57:59.198Z,18.01
2023-05-21T23:00:26.398Z,18.04
2023-05-21T23:02:54.482Z,17.94
2023-05-21T23:05:21.754Z,17.94
2023-05-21T23:07:48.488Z,17.84
2023-05-21T23:10:15.335Z,17.85
2023-05-21T23:12:42.111Z,17.77
2023-05-21T23:15:09.998Z,17.82
2023-05-21T23:17:38.041Z,17.88
2023-05-21T23:20:08.907Z,17.72
2023-05-21T23:22:35.834Z,17.70
2023-05-21T23:25:02.752Z,17.78
2023-05-21T23:27:29.593Z,17.70
2023-05-21T23:29:56.420Z,17.77
2023-05-21T23:32:23.642Z,17.74
2023-05-21T23:34:50.712Z,17.66
2023-05-21T23:37:17.655Z,17.58
2023-05-21T23:39:48.168Z,17.63
2023-05-21T23:42:16.286Z,17.70
2023-05-21T23:44:43.070Z,17.62
2023-05-21T23:47:09.994Z,17.60
2023-05-21T23:49:36.739Z,17.69
2023-05-21T23:52:03.659Z,17.63
2023-05-21T23:54:30.740Z,17.72
2023-05-21T23:56:57.564Z,17.67
2023-05-21T23:59:24.299Z,17.73
